createdAt,value
2016-12-22T00:00:33.977Z,4.57
2016-12-22T00:01:33.865Z,4.69
2016-12-22T00:02:33.943Z,4.53
2016-12-22T00:03:33.946Z,4.61
2016-12-22T00:04:33.959Z,4.61
2016-12-22T00:05:33.884Z,4.66
2016-12-22T00:06:33.986Z,4.56
2016-12-22T00:07:33.944Z,4.53
2016-12-22T00:08:33.886Z,4.57
2016-12-22T00:09:33.942Z,4.57
2016-12-22T00:10:33.958Z,4.57
2016-12-22T00:11:33.974Z,4.44
2016-12-22T00:12:33.887Z,4.51
2016-12-22T00:13:33.911Z,4.48
2016-12-22T00:14:33.956Z,4.47
2016-12-22T00:15:33.962Z,4.53
2016-12-22T00:16:34.030Z,4.54
2016-12-22T00:17:34.026Z,4.44
2016-12-22T00:18:33.969Z,4.47
2016-12-22T00:19:33.913Z,4.4
2016-12-22T00:20:33.990Z,4.53
2016-12-22T00:21:34.027Z,4.42
2016-12-22T00:22:33.986Z,4.48
2016-12-22T00:23:34.137Z,4.47
2016-12-22T00:24:34.000Z,4.46
2016-12-22T00:25:33.981Z,4.38
2016-12-22T00:26:33.992Z,4.4
2016-12-22T00:27:34.057Z,4.38
2016-12-22T00:28:34.005Z,4.5
2016-12-22T00:29:34.009Z,4.48
2016-12-22T00:30:34.070Z,4.44
2016-12-22T00:31:34.074Z,4.44
2016-12-22T00:32:34.012Z,4.42
2016-12-22T00:33:34.038Z,4.47
2016-12-22T00:34:34.059Z,4.51
2016-12-22T00:35:34.013Z,4.46
2016-12-22T00:36:33.989Z,4.42
2016-12-22T00:37:34.019Z,4.39
2016-12-22T00:38:33.975Z,4.5
2016-12-22T00:39:34.037Z,4.48
2016-12-22T00:40:34.104Z,4.38
2016-12-22T00:41:34.035Z,4.48
2016-12-22T00:42:33.984Z,4.44
2016-12-22T00:43:34.041Z,4.48
2016-12-22T00:44:34.109Z,4.44
2016-12-22T00:45:34.059Z,4.51
2016-12-22T00:46:34.066Z,4.48
2016-12-22T00:47:34.184Z,4.47
2016-12-22T00:48:33.995Z,4.53
2016-12-22T00:49:34.143Z,4.42
2016-12-22T00:50:34.078Z,4.46
2016-12-22T00:51:34.148Z,4.44
2016-12-22T00:52:34.141Z,4.38
2016-12-22T00:53:34.088Z,4.4
2016-12-22T00:54:34.016Z,4.46
2016-12-22T00:55:34.013Z,4.4
2016-12-22T00:56:34.095Z,4.36
2016-12-22T00:57:34.075Z,4.33
2016-12-22T00:58:34.015Z,4.42
2016-12-22T00:59:34.087Z,4.46
2016-12-22T01:00:34.051Z,4.39
2016-12-22T01:01:34.100Z,4.4
2016-12-22T01:02:34.157Z,4.44
2016-12-22T01:03:34.093Z,4.39
2016-12-22T01:04:34.097Z,4.4
2016-12-22T01:05:34.097Z,4.42
2016-12-22T01:06:34.105Z,4.4
2016-12-22T01:07:34.105Z,4.3
2016-12-22T01:08:34.136Z,4.38
2016-12-22T01:09:34.114Z,4.38
2016-12-22T01:10:34.167Z,4.29
2016-12-22T01:11:34.047Z,4.4
2016-12-22T01:12:34.067Z,4.38
2016-12-22T01:13:34.057Z,4.46
2016-12-22T01:14:34.122Z,4.32
2016-12-22T01:15:34.133Z,4.46
2016-12-22T01:16:34.337Z,4.36
2016-12-22T01:17:34.132Z,4.44
2016-12-22T01:18:34.185Z,4.42
2016-12-22T01:19:34.199Z,4.39
2016-12-22T01:20:34.154Z,4.33
2016-12-22T01:21:34.087Z,4.33
2016-12-22T01:22:34.164Z,4.48
2016-12-22T01:23:34.223Z,4.44
2016-12-22T01:24:34.189Z,4.44
2016-12-22T01:25:34.368Z,4.35
2016-12-22T01:26:34.138Z,4.36
2016-12-22T01:27:34.208Z,4.46
2016-12-22T01:28:34.112Z,4.38
2016-12-22T01:29:34.168Z,4.47
2016-12-22T01:30:34.229Z,4.5
2016-12-22T01:31:34.306Z,4.4
2016-12-22T01:32:34.343Z,4.42
2016-12-22T01:33:34.172Z,4.36
2016-12-22T01:34:34.187Z,4.46
2016-12-22T01:35:34.233Z,4.38
2016-12-22T01:36:34.258Z,4.38
2016-12-22T01:37:34.123Z,4.42
2016-12-22T01:38:34.133Z,4.42
2016-12-22T01:39:34.276Z,4.44
2016-12-22T01:40:34.240Z,4.44
2016-12-22T01:41:34.158Z,4.36
2016-12-22T01:42:34.151Z,4.42
2016-12-22T01:43:34.261Z,4.33
2016-12-22T01:44:34.279Z,4.32
2016-12-22T01:45:34.218Z,4.5
2016-12-22T01:46:34.162Z,4.48
2016-12-22T01:47:34.163Z,4.51
2016-12-22T01:48:34.236Z,4.39
2016-12-22T01:49:34.168Z,4.36
2016-12-22T01:50:34.168Z,4.44
2016-12-22T01:51:34.262Z,4.47
2016-12-22T01:52:34.182Z,4.3
2016-12-22T01:53:34.287Z,4.42
2016-12-22T01:54:34.308Z,4.44
2016-12-22T01:55:34.189Z,4.42
2016-12-22T01:56:34.200Z,4.39
2016-12-22T01:57:34.262Z,4.36
2016-12-22T01:58:34.292Z,4.42
2016-12-22T01:59:34.244Z,4.42
2016-12-22T02:00:34.316Z,4.42
2016-12-22T02:01:34.254Z,4.35
2016-12-22T02:02:34.356Z,4.48
2016-12-22T02:03:34.246Z,4.38
2016-12-22T02:04:34.213Z,4.36
2016-12-22T02:05:34.211Z,4.35
2016-12-22T02:06:34.291Z,4.36
2016-12-22T02:07:34.249Z,4.3
2016-12-22T02:08:34.295Z,4.4
2016-12-22T02:09:34.280Z,4.39
2016-12-22T02:10:34.346Z,4.38
2016-12-22T02:11:34.224Z,4.39
2016-12-22T02:12:34.304Z,4.42
2016-12-22T02:13:34.351Z,4.4
2016-12-22T02:14:34.351Z,4.44
2016-12-22T02:15:34.295Z,4.4
2016-12-22T02:16:34.278Z,4.28
2016-12-22T02:17:34.353Z,4.4
2016-12-22T02:18:34.312Z,4.39
2016-12-22T02:19:34.361Z,4.35
2016-12-22T02:20:34.240Z,4.42
2016-12-22T02:21:34.306Z,4.4
2016-12-22T02:22:34.274Z,4.35
2016-12-22T02:23:34.354Z,4.5
2016-12-22T02:24:34.277Z,4.36
2016-12-22T02:25:34.330Z,4.32
2016-12-22T02:26:34.318Z,4.38
2016-12-22T02:27:34.400Z,4.38
2016-12-22T02:28:34.497Z,4.35
2016-12-22T02:29:34.495Z,4.39
2016-12-22T02:30:34.288Z,4.36
2016-12-22T02:31:34.368Z,4.42
2016-12-22T02:32:34.348Z,4.39
2016-12-22T02:33:34.337Z,4.46
2016-12-22T02:34:34.675Z,4.4
2016-12-22T02:35:34.459Z,4.4
2016-12-22T02:36:34.357Z,4.4
2016-12-22T02:37:34.301Z,4.33
2016-12-22T02:38:34.304Z,4.33
2016-12-22T02:39:34.460Z,4.4
2016-12-22T02:40:34.314Z,4.47
2016-12-22T02:41:34.724Z,4.44
2016-12-22T02:42:34.376Z,4.44
2016-12-22T02:43:34.371Z,4.39
2016-12-22T02:44:34.451Z,4.42
2016-12-22T02:45:34.565Z,4.35
2016-12-22T02:46:34.461Z,4.4
2016-12-22T02:47:34.378Z,4.44
2016-12-22T02:48:34.337Z,4.54
2016-12-22T02:49:34.439Z,4.42
2016-12-22T02:50:34.320Z,4.38
2016-12-22T02:51:34.395Z,4.33
2016-12-22T02:52:34.326Z,4.42
2016-12-22T02:53:34.389Z,4.44
2016-12-22T02:54:34.463Z,4.5
2016-12-22T02:55:37.348Z,4.36
2016-12-22T02:56:34.346Z,4.44
2016-12-22T02:57:34.404Z,4.39
2016-12-22T02:58:34.352Z,4.32
2016-12-22T02:59:34.466Z,4.44
2016-12-22T03:00:34.423Z,4.33
2016-12-22T03:01:34.418Z,4.4
2016-12-22T03:02:34.457Z,4.46
2016-12-22T03:03:34.432Z,4.44
2016-12-22T03:04:34.411Z,4.44
2016-12-22T03:05:34.449Z,4.39
2016-12-22T03:06:34.386Z,4.39
2016-12-22T03:07:34.439Z,4.47
2016-12-22T03:08:34.443Z,4.47
2016-12-22T03:09:34.507Z,4.35
2016-12-22T03:10:34.476Z,4.36
2016-12-22T03:11:34.490Z,4.44
2016-12-22T03:12:34.621Z,4.44
2016-12-22T03:13:34.449Z,4.42
2016-12-22T03:14:34.472Z,4.42
2016-12-22T03:15:34.510Z,4.42
2016-12-22T03:16:34.385Z,4.35
2016-12-22T03:17:34.513Z,4.48
2016-12-22T03:18:34.414Z,4.35
2016-12-22T03:19:34.463Z,4.4
2016-12-22T03:20:34.526Z,4.4
2016-12-22T03:21:34.541Z,4.42
2016-12-22T03:22:34.552Z,4.4
2016-12-22T03:23:34.465Z,4.42
2016-12-22T03:24:34.529Z,4.38
2016-12-22T03:25:34.420Z,4.4
2016-12-22T03:26:34.480Z,4.36
2016-12-22T03:27:34.598Z,4.36
2016-12-22T03:28:34.494Z,4.3
2016-12-22T03:29:34.558Z,4.42
2016-12-22T03:30:34.462Z,4.4
2016-12-22T03:31:34.560Z,4.5
2016-12-22T03:32:34.505Z,4.51
2016-12-22T03:33:34.553Z,4.32
2016-12-22T03:34:34.516Z,4.38
2016-12-22T03:35:34.573Z,4.4
2016-12-22T03:36:34.455Z,4.32
2016-12-22T03:37:34.520Z,4.44
2016-12-22T03:38:34.521Z,4.42
2016-12-22T03:39:34.471Z,4.4
2016-12-22T03:40:34.588Z,4.44
2016-12-22T03:41:34.524Z,4.38
2016-12-22T03:42:34.481Z,4.44
2016-12-22T03:43:34.660Z,4.48
2016-12-22T03:44:34.534Z,4.46
2016-12-22T03:45:34.543Z,4.36
2016-12-22T03:46:34.544Z,4.35
2016-12-22T03:47:34.602Z,4.38
2016-12-22T03:48:34.607Z,4.4
2016-12-22T03:49:34.609Z,4.3
2016-12-22T03:50:34.595Z,4.39
2016-12-22T03:51:34.605Z,4.46
2016-12-22T03:52:34.619Z,4.36
2016-12-22T03:53:34.554Z,4.46
2016-12-22T03:54:34.581Z,4.36
2016-12-22T03:55:34.590Z,4.35
2016-12-22T03:56:34.566Z,4.46
2016-12-22T03:57:34.562Z,4.33
2016-12-22T03:58:34.635Z,4.4
2016-12-22T03:59:34.902Z,4.42
2016-12-22T04:00:34.525Z,4.38
2016-12-22T04:01:34.612Z,4.36
2016-12-22T04:02:34.644Z,4.35
2016-12-22T04:03:34.647Z,4.4
2016-12-22T04:04:34.657Z,4.39
2016-12-22T04:05:34.527Z,4.36
2016-12-22T04:06:34.641Z,4.3
2016-12-22T04:07:34.651Z,4.28
2016-12-22T04:08:34.601Z,4.44
2016-12-22T04:09:34.642Z,4.4
2016-12-22T04:10:34.650Z,4.39
2016-12-22T04:11:34.557Z,4.36
2016-12-22T04:12:34.629Z,4.35
2016-12-22T04:13:34.558Z,4.39
2016-12-22T04:14:34.717Z,4.36
2016-12-22T04:15:34.920Z,4.32
2016-12-22T04:16:34.631Z,4.33
2016-12-22T04:17:34.611Z,4.36
2016-12-22T04:18:34.652Z,4.39
2016-12-22T04:19:34.676Z,4.35
2016-12-22T04:20:34.567Z,4.33
2016-12-22T04:21:34.684Z,4.36
2016-12-22T04:22:34.651Z,4.42
2016-12-22T04:23:34.716Z,4.38
2016-12-22T04:24:34.694Z,4.42
2016-12-22T04:25:34.650Z,4.35
2016-12-22T04:26:34.709Z,4.35
2016-12-22T04:27:34.654Z,4.39
2016-12-22T04:28:34.683Z,4.35
2016-12-22T04:29:34.676Z,4.33
2016-12-22T04:30:34.731Z,4.36
2016-12-22T04:31:34.726Z,4.33
2016-12-22T04:32:34.637Z,4.28
2016-12-22T04:33:34.690Z,4.38
2016-12-22T04:34:34.699Z,4.35
2016-12-22T04:35:34.713Z,4.35
2016-12-22T04:36:34.809Z,4.33
2016-12-22T04:37:34.670Z,4.4
2016-12-22T04:38:34.726Z,4.29
2016-12-22T04:39:34.678Z,4.4
2016-12-22T04:40:34.695Z,4.42
2016-12-22T04:41:34.748Z,4.42
2016-12-22T04:42:34.741Z,4.38
2016-12-22T04:46:35.281Z,4.42
2016-12-22T04:47:35.456Z,4.39
2016-12-22T04:48:35.211Z,4.33
2016-12-22T04:49:34.976Z,4.38
2016-12-22T04:50:35.111Z,4.32
2016-12-22T04:51:35.105Z,4.4
2016-12-22T04:52:35.333Z,4.3
2016-12-22T04:53:34.889Z,4.38
2016-12-22T04:54:35.029Z,4.26
2016-12-22T04:55:34.879Z,4.33
2016-12-22T04:56:35.164Z,4.39
2016-12-22T04:57:34.776Z,4.36
2016-12-22T04:58:34.803Z,4.21
2016-12-22T04:59:34.850Z,4.39
2016-12-22T05:00:34.741Z,4.33
2016-12-22T05:01:34.726Z,4.29
2016-12-22T05:02:34.684Z,4.35
2016-12-22T05:03:34.922Z,4.35
2016-12-22T05:04:34.780Z,4.42
2016-12-22T05:05:34.715Z,4.44
2016-12-22T05:06:34.735Z,4.38
2016-12-22T05:07:34.794Z,4.33
2016-12-22T05:08:34.763Z,4.33
2016-12-22T05:09:34.743Z,4.24
2016-12-22T05:10:34.679Z,4.38
2016-12-22T05:11:34.664Z,4.24
2016-12-22T05:12:34.803Z,4.36
2016-12-22T05:13:34.819Z,4.21
2016-12-22T05:14:34.806Z,4.33
2016-12-22T05:15:34.741Z,4.32
2016-12-22T05:16:34.819Z,4.32
2016-12-22T05:17:34.739Z,4.29
2016-12-22T05:18:34.676Z,4.2
2016-12-22T05:19:34.811Z,4.33
2016-12-22T05:20:34.801Z,4.29
2016-12-22T05:21:34.803Z,4.39
2016-12-22T05:22:37.981Z,4.38
2016-12-22T05:23:34.788Z,4.29
2016-12-22T05:24:34.764Z,4.3
2016-12-22T05:25:34.754Z,4.36
2016-12-22T05:26:34.766Z,4.33
2016-12-22T05:27:34.806Z,4.36
2016-12-22T05:28:34.768Z,4.33
2016-12-22T05:29:34.743Z,4.4
2016-12-22T05:30:34.821Z,4.33
2016-12-22T05:31:34.816Z,4.35
2016-12-22T05:32:34.787Z,4.38
2016-12-22T05:33:34.797Z,4.33
2016-12-22T05:34:34.761Z,4.35
2016-12-22T05:35:34.797Z,4.35
2016-12-22T05:36:34.753Z,4.32
2016-12-22T05:37:34.733Z,4.66
2016-12-22T05:38:34.825Z,4.33
2016-12-22T05:39:34.768Z,4.35
2016-12-22T05:40:34.766Z,4.53
2016-12-22T05:41:34.750Z,4.32
2016-12-22T05:42:34.698Z,4.3
2016-12-22T05:43:34.707Z,4.3
2016-12-22T05:44:34.767Z,4.35
2016-12-22T05:45:34.853Z,4.42
2016-12-22T05:46:34.735Z,4.4
2016-12-22T05:47:34.806Z,4.4
2016-12-22T05:48:34.762Z,4.44
2016-12-22T05:49:34.787Z,4.42
2016-12-22T05:50:34.789Z,4.36
2016-12-22T05:51:34.771Z,4.39
2016-12-22T05:52:34.781Z,4.39
2016-12-22T05:53:34.736Z,4.42
2016-12-22T05:54:35.592Z,4.42
2016-12-22T05:55:34.839Z,4.38
2016-12-22T05:56:34.776Z,4.32
2016-12-22T05:57:34.854Z,4.35
2016-12-22T05:58:34.754Z,4.42
2016-12-22T05:59:34.778Z,4.39
2016-12-22T06:00:34.815Z,4.35
2016-12-22T06:01:34.869Z,4.39
2016-12-22T06:02:38.414Z,4.4
2016-12-22T06:03:34.796Z,4.32
2016-12-22T06:04:34.859Z,4.38
2016-12-22T06:05:34.792Z,4.38
2016-12-22T06:06:34.804Z,4.4
2016-12-22T06:07:35.744Z,4.5
2016-12-22T06:08:34.869Z,4.33
2016-12-22T06:09:34.744Z,4.44
2016-12-22T06:10:34.885Z,4.54
2016-12-22T06:11:34.816Z,4.5
2016-12-22T06:12:34.793Z,4.48
2016-12-22T06:13:34.805Z,4.53
2016-12-22T06:14:34.857Z,4.39
2016-12-22T06:15:34.784Z,4.42
2016-12-22T06:16:34.862Z,4.33
2016-12-22T06:17:34.921Z,4.46
2016-12-22T06:18:34.810Z,4.6
2016-12-22T06:19:34.848Z,4.53
2016-12-22T06:20:34.776Z,4.48
2016-12-22T06:21:34.825Z,4.5
2016-12-22T06:22:34.842Z,4.47
2016-12-22T06:23:34.806Z,4.46
2016-12-22T06:24:34.888Z,4.53
2016-12-22T06:25:34.819Z,4.54
2016-12-22T06:26:34.772Z,4.61
2016-12-22T06:27:34.924Z,4.56
2016-12-22T06:28:34.900Z,4.5
2016-12-22T06:29:34.908Z,4.61
2016-12-22T06:30:34.924Z,4.57
2016-12-22T06:31:34.908Z,4.53
2016-12-22T06:32:34.847Z,4.57
2016-12-22T06:33:34.782Z,4.56
2016-12-22T06:34:34.905Z,4.65
2016-12-22T06:35:34.895Z,4.53
2016-12-22T06:36:34.903Z,4.54
2016-12-22T06:37:34.910Z,4.58
2016-12-22T06:38:34.992Z,4.66
2016-12-22T06:39:34.923Z,4.6
2016-12-22T06:40:34.886Z,4.57
2016-12-22T06:41:34.905Z,4.57
2016-12-22T06:42:34.918Z,4.51
2016-12-22T06:43:34.890Z,4.57
2016-12-22T06:44:34.794Z,4.53
2016-12-22T06:45:34.798Z,4.68
2016-12-22T06:46:34.937Z,4.6
2016-12-22T06:47:34.802Z,4.61
2016-12-22T06:48:34.909Z,4.6
2016-12-22T06:49:34.855Z,4.54
2016-12-22T06:50:34.838Z,4.64
2016-12-22T06:51:34.874Z,4.6
2016-12-22T06:52:34.922Z,4.6
2016-12-22T06:53:34.877Z,4.57
2016-12-22T06:54:34.873Z,4.65
2016-12-22T06:55:34.902Z,4.61
2016-12-22T06:56:34.855Z,4.68
2016-12-22T06:57:34.816Z,4.61
2016-12-22T06:58:34.930Z,4.66
2016-12-22T06:59:34.882Z,4.6
2016-12-22T07:00:34.874Z,4.71
2016-12-22T07:01:34.870Z,4.71
2016-12-22T07:02:34.942Z,4.66
2016-12-22T07:03:34.881Z,4.75
2016-12-22T07:04:34.946Z,4.71
2016-12-22T07:05:34.838Z,4.83
2016-12-22T07:06:34.904Z,4.66
2016-12-22T07:07:34.907Z,4.74
2016-12-22T07:08:34.978Z,4.74
2016-12-22T07:09:34.958Z,4.6
2016-12-22T07:10:34.883Z,4.66
2016-12-22T07:11:35.231Z,4.71
2016-12-22T07:12:34.886Z,4.64
2016-12-22T07:13:34.888Z,4.68
2016-12-22T07:14:34.850Z,4.68
2016-12-22T07:15:34.901Z,4.71
2016-12-22T07:16:34.841Z,4.69
2016-12-22T07:17:35.050Z,4.72
2016-12-22T07:18:34.841Z,4.79
2016-12-22T07:19:34.907Z,4.75
2016-12-22T07:20:34.928Z,4.74
2016-12-22T07:21:34.897Z,4.72
2016-12-22T07:22:34.928Z,4.72
2016-12-22T07:23:34.925Z,4.68
2016-12-22T07:24:34.923Z,4.71
2016-12-22T07:25:34.975Z,4.56
2016-12-22T07:26:34.956Z,4.68
2016-12-22T07:27:34.991Z,4.83
2016-12-22T07:28:34.927Z,4.66
2016-12-22T07:29:34.969Z,4.71
2016-12-22T07:30:34.925Z,4.69
2016-12-22T07:31:34.910Z,4.74
2016-12-22T07:32:34.916Z,4.69
2016-12-22T07:33:34.888Z,4.74
2016-12-22T07:34:34.936Z,4.66
2016-12-22T07:35:34.962Z,4.79
2016-12-22T07:36:34.935Z,4.72
2016-12-22T07:37:34.921Z,4.72
2016-12-22T07:38:34.950Z,4.71
2016-12-22T07:39:34.977Z,4.76
2016-12-22T07:40:35.075Z,4.74
2016-12-22T07:41:34.942Z,4.69
2016-12-22T07:42:35.008Z,4.75
2016-12-22T07:43:35.231Z,4.68
2016-12-22T07:44:35.031Z,4.76
2016-12-22T07:45:34.884Z,4.75
2016-12-22T07:46:34.907Z,4.74
2016-12-22T07:47:34.995Z,4.76
2016-12-22T07:48:34.917Z,4.72
2016-12-22T07:49:34.938Z,4.75
2016-12-22T07:50:35.068Z,4.69
2016-12-22T07:51:34.965Z,4.78
2016-12-22T07:52:34.972Z,4.71
2016-12-22T07:53:35.033Z,4.76
2016-12-22T07:54:35.109Z,4.72
2016-12-22T07:55:35.051Z,4.78
2016-12-22T07:56:34.956Z,4.74
2016-12-22T07:57:35.008Z,4.84
2016-12-22T07:58:34.934Z,4.79
2016-12-22T07:59:35.004Z,4.76
2016-12-22T08:00:35.009Z,4.75
2016-12-22T08:01:35.001Z,4.74
2016-12-22T08:02:35.038Z,4.72
2016-12-22T08:03:34.947Z,4.83
2016-12-22T08:04:34.979Z,4.76
2016-12-22T08:05:34.932Z,4.76
2016-12-22T08:06:35.018Z,4.72
2016-12-22T08:07:35.020Z,4.84
2016-12-22T08:08:34.990Z,4.76
2016-12-22T08:09:34.986Z,4.79
2016-12-22T08:10:35.043Z,4.76
2016-12-22T08:11:35.153Z,4.83
2016-12-22T08:12:34.999Z,4.79
2016-12-22T08:13:35.085Z,4.76
2016-12-22T08:14:35.019Z,4.76
2016-12-22T08:15:36.987Z,4.79
2016-12-22T08:16:34.976Z,4.91
2016-12-22T08:17:35.059Z,4.79
2016-12-22T08:18:35.183Z,4.87
2016-12-22T08:19:35.058Z,4.92
2016-12-22T08:20:34.971Z,4.84
2016-12-22T08:21:35.099Z,4.75
2016-12-22T08:22:34.925Z,4.85
2016-12-22T08:23:34.915Z,4.84
2016-12-22T08:24:34.990Z,4.79
2016-12-22T08:25:34.985Z,4.9
2016-12-22T08:26:35.016Z,4.87
2016-12-22T08:27:35.049Z,4.87
2016-12-22T08:28:34.934Z,4.95
2016-12-22T08:29:34.959Z,4.9
2016-12-22T08:30:35.065Z,4.91
2016-12-22T08:31:34.976Z,4.95
2016-12-22T08:32:35.009Z,4.92
2016-12-22T08:33:35.026Z,4.91
2016-12-22T08:34:35.057Z,5.05
2016-12-22T08:35:34.985Z,4.84
2016-12-22T08:36:34.946Z,4.98
2016-12-22T08:37:35.135Z,5.02
2016-12-22T08:38:35.021Z,5
2016-12-22T08:39:35.021Z,4.98
2016-12-22T08:40:35.161Z,5
2016-12-22T08:41:34.934Z,4.94
2016-12-22T08:42:35.161Z,4.87
2016-12-22T08:43:34.960Z,5
2016-12-22T08:44:34.978Z,4.94
2016-12-22T08:45:35.014Z,4.94
2016-12-22T08:46:35.012Z,4.95
2016-12-22T08:47:35.234Z,5.08
2016-12-22T08:48:35.059Z,4.95
2016-12-22T08:49:35.178Z,5.02
2016-12-22T08:50:35.149Z,5.03
2016-12-22T08:51:35.098Z,5.05
2016-12-22T08:52:35.150Z,5.08
2016-12-22T08:53:34.977Z,4.94
2016-12-22T08:54:34.988Z,5.05
2016-12-22T08:55:35.284Z,5.03
2016-12-22T08:56:35.027Z,5.12
2016-12-22T08:57:35.210Z,5.03
2016-12-22T08:58:35.014Z,5.08
2016-12-22T08:59:35.081Z,5.05
2016-12-22T09:00:35.037Z,5.08
2016-12-22T09:01:35.087Z,5.03
2016-12-22T09:02:35.096Z,4.92
2016-12-22T09:03:35.057Z,5.05
2016-12-22T09:04:35.043Z,5
2016-12-22T09:05:35.123Z,5.09
2016-12-22T09:06:35.160Z,5.12
2016-12-22T09:07:35.042Z,5.1
2016-12-22T09:08:35.062Z,5.08
2016-12-22T09:09:35.019Z,5.09
2016-12-22T09:10:35.117Z,5.09
2016-12-22T09:11:34.992Z,5.15
2016-12-22T09:12:35.078Z,5.06
2016-12-22T09:13:35.067Z,5.1
2016-12-22T09:14:35.063Z,5.06
2016-12-22T09:15:35.140Z,4.98
2016-12-22T09:16:35.072Z,5.13
2016-12-22T09:19:35.153Z,5.1
2016-12-22T09:21:42.197Z,5.12
2016-12-22T09:22:42.102Z,5.02
2016-12-22T09:23:42.156Z,5.15
2016-12-22T09:24:42.120Z,5.13
2016-12-22T09:25:42.194Z,5.18
2016-12-22T09:26:42.096Z,5.08
2016-12-22T09:27:42.210Z,5.23
2016-12-22T09:28:42.244Z,5.13
2016-12-22T09:29:42.149Z,5.16
2016-12-22T09:30:42.110Z,5.16
2016-12-22T09:31:42.129Z,5.18
2016-12-22T09:32:42.173Z,5.26
2016-12-22T09:33:42.126Z,5.1
2016-12-22T09:34:42.211Z,5.12
2016-12-22T09:35:42.134Z,5.24
2016-12-22T09:36:42.164Z,5.13
2016-12-22T09:37:42.131Z,5.16
2016-12-22T09:38:42.136Z,5.18
2016-12-22T09:39:42.151Z,5.18
2016-12-22T09:40:42.146Z,5.2
2016-12-22T09:41:42.063Z,5.24
2016-12-22T09:42:42.188Z,5.18
2016-12-22T09:43:42.187Z,5.26
2016-12-22T09:44:42.282Z,5.21
2016-12-22T09:45:42.246Z,5.23
2016-12-22T09:46:42.128Z,5.31
2016-12-22T09:47:42.082Z,5.24
2016-12-22T09:48:42.199Z,5.28
2016-12-22T09:49:42.118Z,5.36
2016-12-22T09:50:42.216Z,5.31
2016-12-22T09:51:42.145Z,5.26
2016-12-22T09:52:42.230Z,5.33
2016-12-22T09:53:42.098Z,5.24
2016-12-22T09:54:42.215Z,5.28
2016-12-22T09:55:42.105Z,5.28
2016-12-22T09:56:42.122Z,5.28
2016-12-22T09:57:42.170Z,5.3
2016-12-22T09:58:42.230Z,5.27
2016-12-22T09:59:42.162Z,5.31
2016-12-22T10:00:42.152Z,5.27
2016-12-22T10:01:42.261Z,5.26
2016-12-22T10:02:42.139Z,5.31
2016-12-22T10:03:42.155Z,5.34
2016-12-22T10:04:42.165Z,5.3
2016-12-22T10:05:42.166Z,5.39
2016-12-22T10:06:42.179Z,5.31
2016-12-22T10:07:42.230Z,5.28
2016-12-22T10:08:42.156Z,5.34
2016-12-22T10:09:42.095Z,5.37
2016-12-22T10:10:42.245Z,5.41
2016-12-22T10:11:42.160Z,5.36
2016-12-22T10:12:42.255Z,5.26
2016-12-22T10:13:42.099Z,5.37
2016-12-22T10:14:42.180Z,5.36
2016-12-22T10:15:42.192Z,5.36
2016-12-22T10:16:42.203Z,5.31
2016-12-22T10:17:42.184Z,5.34
2016-12-22T10:18:42.108Z,5.33
2016-12-22T10:19:42.220Z,5.33
2016-12-22T10:20:42.181Z,5.33
2016-12-22T10:21:42.178Z,5.41
2016-12-22T10:22:42.124Z,5.34
2016-12-22T10:23:42.240Z,5.31
2016-12-22T10:24:42.167Z,5.34
2016-12-22T10:25:42.179Z,5.39
2016-12-22T10:26:42.228Z,5.44
2016-12-22T10:27:42.283Z,5.39
2016-12-22T10:28:42.255Z,5.3
2016-12-22T10:29:43.235Z,5.44
2016-12-22T10:30:42.216Z,5.41
2016-12-22T10:31:42.195Z,5.33
2016-12-22T10:32:42.176Z,5.45
2016-12-22T10:33:42.145Z,5.36
2016-12-22T10:34:42.191Z,5.34
2016-12-22T10:35:42.209Z,5.36
2016-12-22T10:36:42.258Z,5.39
2016-12-22T10:37:42.211Z,5.34
2016-12-22T10:38:42.359Z,5.36
2016-12-22T10:39:42.202Z,5.46
2016-12-22T10:40:42.216Z,5.39
2016-12-22T10:41:42.252Z,5.39
2016-12-22T10:42:42.203Z,5.51
2016-12-22T10:43:43.031Z,5.42
2016-12-22T10:44:42.265Z,5.41
2016-12-22T10:45:42.267Z,5.39
2016-12-22T10:46:42.242Z,5.34
2016-12-22T10:47:42.231Z,5.37
2016-12-22T10:48:42.171Z,5.37
2016-12-22T10:49:42.164Z,5.42
2016-12-22T10:50:42.256Z,5.36
2016-12-22T10:51:42.271Z,5.31
2016-12-22T10:52:42.215Z,5.41
2016-12-22T10:53:42.232Z,5.3
2016-12-22T10:54:42.267Z,5.37
2016-12-22T10:55:43.202Z,5.34
2016-12-22T10:56:42.207Z,5.39
2016-12-22T10:57:42.284Z,5.34
2016-12-22T10:58:42.202Z,5.39
2016-12-22T10:59:42.285Z,5.39
2016-12-22T11:00:42.343Z,5.42
2016-12-22T11:01:42.283Z,5.44
2016-12-22T11:02:42.214Z,5.39
2016-12-22T11:03:42.246Z,5.48
2016-12-22T11:04:42.380Z,5.44
2016-12-22T11:05:42.376Z,5.45
2016-12-22T11:06:42.498Z,5.51
2016-12-22T11:07:42.345Z,5.41
2016-12-22T11:08:42.308Z,5.49
2016-12-22T11:09:42.370Z,5.48
2016-12-22T11:10:42.457Z,5.51
2016-12-22T11:11:42.301Z,5.55
2016-12-22T11:12:42.241Z,5.54
2016-12-22T11:13:42.277Z,5.59
2016-12-22T11:14:42.233Z,5.62
2016-12-22T11:15:42.183Z,5.54
2016-12-22T11:16:42.173Z,5.59
2016-12-22T11:17:42.255Z,5.54
2016-12-22T11:18:42.182Z,5.55
2016-12-22T11:19:42.282Z,5.51
2016-12-22T11:20:43.023Z,5.6
2016-12-22T11:21:42.336Z,5.52
2016-12-22T11:22:42.401Z,5.6
2016-12-22T11:23:42.318Z,5.59
2016-12-22T11:24:42.205Z,5.62
2016-12-22T11:25:42.405Z,5.66
2016-12-22T11:26:42.352Z,5.49
2016-12-22T11:27:42.322Z,5.51
2016-12-22T11:28:42.262Z,5.64
2016-12-22T11:29:42.208Z,5.59
2016-12-22T11:30:42.310Z,5.73
2016-12-22T11:31:42.242Z,5.66
2016-12-22T11:32:42.261Z,5.52
2016-12-22T11:33:42.202Z,5.81
2016-12-22T11:34:42.308Z,5.69
2016-12-22T11:35:42.209Z,5.57
2016-12-22T11:36:42.301Z,5.63
2016-12-22T11:37:42.266Z,5.66
2016-12-22T11:38:42.247Z,5.72
2016-12-22T11:39:42.248Z,5.69
2016-12-22T11:40:42.421Z,5.69
2016-12-22T11:41:42.367Z,5.72
2016-12-22T11:42:42.341Z,5.67
2016-12-22T11:43:43.187Z,5.73
2016-12-22T11:44:42.268Z,5.7
2016-12-22T11:45:42.283Z,5.77
2016-12-22T11:46:42.292Z,5.64
2016-12-22T11:47:42.323Z,5.75
2016-12-22T11:48:42.263Z,5.59
2016-12-22T11:49:42.298Z,5.66
2016-12-22T11:50:42.363Z,5.75
2016-12-22T11:51:42.261Z,5.8
2016-12-22T11:52:49.407Z,5.69
2016-12-22T11:53:45.811Z,5.69
2016-12-22T11:54:43.519Z,5.7
2016-12-22T11:55:44.068Z,5.78
2016-12-22T11:56:42.292Z,5.67
2016-12-22T11:57:43.166Z,5.69
2016-12-22T11:58:42.414Z,5.67
2016-12-22T11:59:42.342Z,5.77
2016-12-22T12:00:42.249Z,5.81
2016-12-22T12:01:42.360Z,5.7
2016-12-22T12:02:42.376Z,5.73
2016-12-22T12:03:42.442Z,5.72
2016-12-22T12:04:42.404Z,5.75
2016-12-22T12:05:42.373Z,5.78
2016-12-22T12:06:42.304Z,5.72
2016-12-22T12:07:42.262Z,5.7
2016-12-22T12:08:42.395Z,5.73
2016-12-22T12:09:43.905Z,5.8
2016-12-22T12:10:42.585Z,5.75
2016-12-22T12:11:42.363Z,5.67
2016-12-22T12:12:43.665Z,5.72
2016-12-22T12:13:42.322Z,5.72
2016-12-22T12:14:43.998Z,5.73
2016-12-22T12:15:42.380Z,5.77
2016-12-22T12:16:42.344Z,5.81
2016-12-22T12:17:42.362Z,5.82
2016-12-22T12:18:42.394Z,5.91
2016-12-22T12:19:42.343Z,5.8
2016-12-22T12:20:42.269Z,5.85
2016-12-22T12:21:42.364Z,5.78
2016-12-22T12:22:42.321Z,5.8
2016-12-22T12:23:42.345Z,5.95
2016-12-22T12:24:42.307Z,5.78
2016-12-22T12:25:42.355Z,5.91
2016-12-22T12:26:42.395Z,5.8
2016-12-22T12:27:42.444Z,5.89
2016-12-22T12:28:42.401Z,5.98
2016-12-22T12:29:42.390Z,5.88
2016-12-22T12:30:42.413Z,5.96
2016-12-22T12:31:42.511Z,5.88
2016-12-22T12:32:42.986Z,5.95
2016-12-22T12:33:42.976Z,5.91
2016-12-22T12:34:42.393Z,5.95
2016-12-22T12:35:42.353Z,5.98
2016-12-22T12:36:42.382Z,5.89
2016-12-22T12:37:42.391Z,5.92
2016-12-22T12:38:42.401Z,6
2016-12-22T12:39:42.559Z,5.99
2016-12-22T12:40:42.380Z,6.03
2016-12-22T12:41:42.782Z,6
2016-12-22T12:42:42.333Z,6.06
2016-12-22T12:43:42.363Z,5.98
2016-12-22T12:44:42.415Z,6.02
2016-12-22T12:45:42.362Z,5.98
2016-12-22T12:46:42.848Z,6.03
2016-12-22T12:47:42.359Z,6.06
2016-12-22T12:48:42.366Z,6.05
2016-12-22T12:49:42.354Z,6.13
2016-12-22T12:50:42.392Z,6.07
2016-12-22T12:51:42.386Z,6.07
2016-12-22T12:52:42.526Z,6.06
2016-12-22T12:53:42.419Z,6.14
2016-12-22T12:54:42.403Z,6.17
2016-12-22T12:55:42.393Z,6.13
2016-12-22T12:56:42.432Z,6.13
2016-12-22T12:57:42.426Z,6.14
2016-12-22T12:58:42.322Z,6.14
2016-12-22T12:59:42.434Z,6.21
2016-12-22T13:00:42.490Z,6.17
2016-12-22T13:01:42.405Z,6.24
2016-12-22T13:02:42.529Z,6.25
2016-12-22T13:03:42.402Z,6.24
2016-12-22T13:04:42.464Z,6.17
2016-12-22T13:05:42.497Z,6.34
2016-12-22T13:06:42.438Z,6.33
2016-12-22T13:07:42.470Z,6.31
2016-12-22T13:08:42.379Z,6.25
2016-12-22T13:09:42.402Z,6.17
2016-12-22T13:10:42.360Z,6.21
2016-12-22T13:11:42.475Z,6.29
2016-12-22T13:12:42.425Z,6.25
2016-12-22T13:13:42.493Z,6.34
2016-12-22T13:14:42.503Z,6.34
2016-12-22T13:15:42.484Z,6.28
2016-12-22T13:16:42.484Z,6.24
2016-12-22T13:17:42.460Z,6.29
2016-12-22T13:18:42.477Z,6.25
2016-12-22T13:19:42.460Z,6.36
2016-12-22T13:20:42.403Z,6.24
2016-12-22T13:21:42.390Z,6.26
2016-12-22T13:22:42.424Z,6.24
2016-12-22T13:23:42.445Z,6.29
2016-12-22T13:24:42.358Z,6.34
2016-12-22T13:25:42.417Z,6.36
2016-12-22T13:26:42.412Z,6.26
2016-12-22T13:27:42.360Z,6.34
2016-12-22T13:28:42.456Z,6.29